createdAt,value
2023-01-11T00:00:48.071Z,9.87
2023-01-11T00:03:18.269Z,6.40
2023-01-11T00:05:46.630Z,8.17
2023-01-11T00:08:14.943Z,10.63
2023-01-11T00:10:43.231Z,8.20
2023-01-11T00:13:11.611Z,11.13
2023-01-11T00:15:40.725Z,6.57
2023-01-11T00:18:09.305Z,6.87
2023-01-11T00:20:41.276Z,11.57
2023-01-11T00:23:09.751Z,8.70
2023-01-11T00:25:39.065Z,6.50
2023-01-11T00:28:07.960Z,7.37
2023-01-11T00:30:36.867Z,8.17
2023-01-11T00:33:05.410Z,5.77
2023-01-11T00:35:33.920Z,7.77
2023-01-11T00:38:03.741Z,12.30
2023-01-11T00:40:32.011Z,11.90
2023-01-11T00:43:17.674Z,8.90
2023-01-11T00:46:03.910Z,9.17
2023-01-11T00:48:34.525Z,7.50
2023-01-11T00:51:02.874Z,6.80
2023-01-11T00:53:32.552Z,9.47
2023-01-11T00:56:00.788Z,6.93
2023-01-11T00:58:29.020Z,10.10
2023-01-11T01:00:57.482Z,10.93
2023-01-11T01:03:25.871Z,6.13
2023-01-11T01:05:56.636Z,7.50
2023-01-11T01:08:24.969Z,8.13
2023-01-11T01:10:54.728Z,11.37
2023-01-11T01:13:41.535Z,7.53
2023-01-11T01:16:10.051Z,4.23
2023-01-11T01:18:38.430Z,5.73
2023-01-11T01:21:07.010Z,13.10
2023-01-11T01:23:35.399Z,9.83
2023-01-11T01:26:06.128Z,9.70
2023-01-11T01:28:34.645Z,6.50
2023-01-11T01:31:03.097Z,9.57
2023-01-11T01:33:31.522Z,8.00
2023-01-11T01:35:59.846Z,7.87
2023-01-11T01:38:28.733Z,7.90
2023-01-11T01:40:57.306Z,6.80
2023-01-11T01:43:48.989Z,6.13
2023-01-11T01:46:17.627Z,6.40
2023-01-11T01:48:49.309Z,11.77
2023-01-11T01:51:22.338Z,7.77
2023-01-11T01:53:54.201Z,6.80
2023-01-11T01:56:28.642Z,6.53
2023-01-11T01:59:03.465Z,6.37
2023-01-11T02:02:04.932Z,6.10
2023-01-11T02:04:37.466Z,6.63
2023-01-11T02:07:09.260Z,10.83
2023-01-11T02:09:43.583Z,9.20
2023-01-11T02:12:13.353Z,5.10
2023-01-11T02:14:44.463Z,13.10
2023-01-11T02:17:13.098Z,10.10
2023-01-11T02:19:54.504Z,4.83
2023-01-11T02:22:46.501Z,9.67
2023-01-11T02:25:50.267Z,8.60
2023-01-11T02:28:26.624Z,4.57
2023-01-11T02:31:01.934Z,7.77
2023-01-11T02:33:40.883Z,6.80
2023-01-11T02:36:15.932Z,8.43
2023-01-11T02:38:52.886Z,6.63
2023-01-11T02:41:53.615Z,9.00
2023-01-11T02:44:46.280Z,7.30
2023-01-11T02:47:19.975Z,6.83
2023-01-11T02:49:53.603Z,6.87
2023-01-11T02:52:27.592Z,4.03
2023-01-11T02:54:59.587Z,7.07
2023-01-11T02:57:31.153Z,8.53
2023-01-11T03:00:02.095Z,6.53
2023-01-11T03:02:30.427Z,6.20
2023-01-11T03:04:58.723Z,8.50
2023-01-11T03:07:52.435Z,3.17
2023-01-11T03:10:33.166Z,8.00
2023-01-11T03:13:08.557Z,8.00
2023-01-11T03:16:12.175Z,6.83
2023-01-11T03:18:49.227Z,11.07
2023-01-11T03:21:34.169Z,3.67
2023-01-11T03:24:13.280Z,6.47
2023-01-11T03:26:53.760Z,4.63
2023-01-11T03:29:30.677Z,6.53
2023-01-11T03:32:12.455Z,4.60
2023-01-11T03:34:52.993Z,6.17
2023-01-11T03:37:27.994Z,6.50
2023-01-11T03:40:04.182Z,3.63
2023-01-11T03:42:35.586Z,5.87
2023-01-11T03:45:05.483Z,5.70
2023-01-11T03:47:36.508Z,4.40
2023-01-11T03:50:11.073Z,4.97
2023-01-11T03:52:42.785Z,4.63
2023-01-11T03:55:16.117Z,6.40
2023-01-11T03:57:51.602Z,5.13
2023-01-11T04:00:21.359Z,5.70
2023-01-11T04:02:53.962Z,5.17
2023-01-11T04:05:22.500Z,7.57
2023-01-11T04:07:50.787Z,7.20
2023-01-11T04:10:19.256Z,5.70
2023-01-11T04:12:48.416Z,5.80
2023-01-11T04:15:17.125Z,4.57
2023-01-11T04:17:45.396Z,3.47
2023-01-11T04:20:15.378Z,5.27
2023-01-11T04:22:43.750Z,8.60
2023-01-11T04:25:12.092Z,4.60
2023-01-11T04:27:44.356Z,7.57
2023-01-11T04:30:13.793Z,4.57
2023-01-11T04:32:42.229Z,6.00
2023-01-11T04:35:10.955Z,6.53
2023-01-11T04:37:40.827Z,6.10
2023-01-11T04:40:10.521Z,5.30
2023-01-11T04:42:37.843Z,6.53
2023-01-11T04:45:07.160Z,3.30
2023-01-11T04:47:35.471Z,7.17
2023-01-11T04:50:03.897Z,6.13
2023-01-11T04:52:32.281Z,3.73
2023-01-11T04:55:01.904Z,5.57
2023-01-11T04:57:30.327Z,7.70
2023-01-11T04:59:58.628Z,4.37
2023-01-11T05:02:26.822Z,4.83
2023-01-11T05:04:55.120Z,6.00
2023-01-11T05:07:23.356Z,2.70
2023-01-11T05:09:51.561Z,4.40
2023-01-11T05:12:21.195Z,5.37
2023-01-11T05:14:49.403Z,7.73
2023-01-11T05:17:17.946Z,3.90
2023-01-11T05:19:45.957Z,3.60
2023-01-11T05:22:14.024Z,5.80
2023-01-11T05:24:42.124Z,3.30
2023-01-11T05:27:10.309Z,5.33
2023-01-11T05:29:39.644Z,4.90
2023-01-11T05:32:07.756Z,6.20
2023-01-11T05:34:36.074Z,4.97
2023-01-11T05:37:04.041Z,4.33
2023-01-11T05:39:32.060Z,2.97
2023-01-11T05:42:00.049Z,7.13
2023-01-11T05:44:45.494Z,4.80
2023-01-11T05:47:14.875Z,6.87
2023-01-11T05:49:42.863Z,4.50
2023-01-11T05:52:10.873Z,6.17
2023-01-11T05:54:38.910Z,4.27
2023-01-11T05:57:10.544Z,4.63
2023-01-11T05:59:38.620Z,4.10
2023-01-11T06:02:06.742Z,6.53
2023-01-11T06:04:36.168Z,2.83
2023-01-11T06:07:04.258Z,3.47
2023-01-11T06:09:32.375Z,4.60
2023-01-11T06:12:00.409Z,19.00
2023-01-11T06:14:28.540Z,22.70
2023-01-11T06:16:56.833Z,5.17
2023-01-11T06:19:24.928Z,6.40
2023-01-11T06:21:54.503Z,6.83
2023-01-11T06:24:22.557Z,5.93
2023-01-11T06:26:53.420Z,4.30
2023-01-11T06:29:21.555Z,5.57
2023-01-11T06:31:49.646Z,5.07
2023-01-11T06:34:17.769Z,2.57
2023-01-11T06:36:45.841Z,4.07
2023-01-11T06:39:15.290Z,3.57
2023-01-11T06:41:43.402Z,3.53
2023-01-11T06:44:11.503Z,3.17
2023-01-11T06:46:39.561Z,3.50
2023-01-11T06:49:07.614Z,4.03
2023-01-11T06:51:35.620Z,2.07
2023-01-11T06:54:03.687Z,6.27
2023-01-11T06:56:33.095Z,3.60
2023-01-11T06:59:01.240Z,3.60
2023-01-11T07:01:30.541Z,5.43
2023-01-11T07:03:58.815Z,3.83
2023-01-11T07:06:29.190Z,4.13
2023-01-11T07:08:57.285Z,4.93
2023-01-11T07:11:25.316Z,6.83
2023-01-11T07:13:54.767Z,4.23
2023-01-11T07:16:22.845Z,8.00
2023-01-11T07:18:50.916Z,6.47
2023-01-11T07:21:18.994Z,5.13
2023-01-11T07:23:48.798Z,3.00
2023-01-11T07:26:17.623Z,2.80
2023-01-11T07:28:45.645Z,4.07
2023-01-11T07:31:15.119Z,2.83
2023-01-11T07:33:43.188Z,5.83
2023-01-11T07:36:11.478Z,3.57
2023-01-11T07:38:39.662Z,6.00
2023-01-11T07:41:21.739Z,6.67
2023-01-11T07:43:49.864Z,1.73
2023-01-11T07:46:19.561Z,3.30
2023-01-11T07:48:48.062Z,4.87
2023-01-11T07:51:18.009Z,5.83
2023-01-11T07:53:46.108Z,6.87
2023-01-11T07:56:14.286Z,5.43
2023-01-11T07:58:42.326Z,2.67
2023-01-11T08:01:10.563Z,3.23
2023-01-11T08:03:40.315Z,6.90
2023-01-11T08:06:08.916Z,4.33
2023-01-11T08:08:37.082Z,5.87
2023-01-11T08:11:37.489Z,4.80
2023-01-11T08:14:22.770Z,5.30
2023-01-11T08:16:50.845Z,3.30
2023-01-11T08:19:20.360Z,3.47
2023-01-11T08:21:48.504Z,4.17
2023-01-11T08:24:16.841Z,5.80
2023-01-11T08:26:45.299Z,4.47
2023-01-11T08:29:13.564Z,5.23
2023-01-11T08:31:41.626Z,4.70
2023-01-11T08:34:09.937Z,3.40
2023-01-11T08:36:39.468Z,1.80
2023-01-11T08:39:07.591Z,4.80
2023-01-11T08:41:35.686Z,2.87
2023-01-11T08:44:03.823Z,6.13
2023-01-11T08:46:34.102Z,3.10
2023-01-11T08:49:02.682Z,2.73
2023-01-11T08:51:31.314Z,3.90
2023-01-11T08:54:00.902Z,5.23
2023-01-11T08:56:29.185Z,5.43
2023-01-11T08:58:57.246Z,5.13
2023-01-11T09:01:25.431Z,3.77
2023-01-11T09:03:53.526Z,3.03
2023-01-11T09:06:22.165Z,2.33
2023-01-11T09:08:50.435Z,3.20
2023-01-11T09:11:45.819Z,3.23
2023-01-11T09:14:13.918Z,4.63
2023-01-11T09:16:42.049Z,5.13
2023-01-11T09:19:10.184Z,3.10
2023-01-11T09:21:38.267Z,3.10
2023-01-11T09:24:06.976Z,2.27
2023-01-11T09:26:38.006Z,2.70
2023-01-11T09:29:06.479Z,2.37
2023-01-11T09:31:34.740Z,7.37
2023-01-11T09:34:04.198Z,4.17
2023-01-11T09:36:33.375Z,3.20
2023-01-11T09:39:04.585Z,2.70
2023-01-11T09:41:45.431Z,4.50
2023-01-11T09:44:19.535Z,5.17
2023-01-11T09:46:51.711Z,2.60
2023-01-11T09:49:23.378Z,3.30
2023-01-11T09:51:53.481Z,5.00
2023-01-11T09:54:25.878Z,4.27
2023-01-11T09:57:02.166Z,4.87
2023-01-11T09:59:40.501Z,3.87
2023-01-11T10:02:23.345Z,3.97
2023-01-11T10:05:09.680Z,4.20
2023-01-11T10:14:01.311Z,4.80
2023-01-11T10:18:39.852Z,3.63
2023-01-11T10:19:49.242Z,5.30
2023-01-11T10:22:23.310Z,6.33
2023-01-11T10:24:58.199Z,4.30
2023-01-11T10:27:31.138Z,5.43
2023-01-11T10:30:13.624Z,3.50
2023-01-11T10:32:54.346Z,5.90
2023-01-11T10:35:45.592Z,5.23
2023-01-11T10:38:40.918Z,5.53
2023-01-11T10:41:20.070Z,6.63
2023-01-11T10:43:55.790Z,3.07
2023-01-11T10:46:28.115Z,4.03
2023-01-11T10:49:04.548Z,3.57
2023-01-11T10:51:38.763Z,3.10
2023-01-11T10:54:16.775Z,3.47
2023-01-11T10:57:03.614Z,3.23
2023-01-11T10:59:50.786Z,4.17
2023-01-11T11:02:33.199Z,4.57
2023-01-11T11:05:13.062Z,4.47
2023-01-11T11:07:49.265Z,4.20
2023-01-11T11:10:22.219Z,5.00
2023-01-11T11:12:58.397Z,4.90
2023-01-11T11:15:33.032Z,5.67
2023-01-11T11:18:02.512Z,4.03
2023-01-11T11:20:32.947Z,4.70
2023-01-11T11:23:01.640Z,5.97
2023-01-11T11:25:32.556Z,4.30
2023-01-11T11:28:04.543Z,10.17
2023-01-11T11:30:37.852Z,5.90
2023-01-11T11:33:15.878Z,3.37
2023-01-11T11:35:46.346Z,3.60
2023-01-11T11:38:23.540Z,4.03
2023-01-11T11:40:59.359Z,4.13
2023-01-11T11:43:28.799Z,6.07
2023-01-11T11:45:58.742Z,5.10
2023-01-11T11:48:31.201Z,6.93
2023-01-11T11:51:03.060Z,6.20
2023-01-11T11:53:44.195Z,5.73
2023-01-11T11:56:22.448Z,7.10
2023-01-11T11:58:51.204Z,7.97
2023-01-11T12:01:27.412Z,4.40
2023-01-11T12:04:00.321Z,7.50
2023-01-11T12:06:30.495Z,5.23
2023-01-11T12:09:02.096Z,6.07
2023-01-11T12:11:34.945Z,5.77
2023-01-11T12:14:16.361Z,6.37
2023-01-11T12:16:46.655Z,4.20
2023-01-11T12:19:34.905Z,5.47
2023-01-11T12:22:12.976Z,7.90
2023-01-11T12:24:41.179Z,10.03
2023-01-11T12:27:19.419Z,6.93
2023-01-11T12:30:09.401Z,5.10
2023-01-11T12:33:03.270Z,5.93
2023-01-11T12:35:39.560Z,6.50
2023-01-11T12:38:31.153Z,7.57
2023-01-11T12:44:40.047Z,4.73
2023-01-11T12:47:28.506Z,4.37
2023-01-11T12:50:05.402Z,7.13
2023-01-11T12:52:54.510Z,4.13
2023-01-11T12:55:35.138Z,7.67
2023-01-11T12:58:09.063Z,3.77
2023-01-11T13:01:18.403Z,6.77
2023-01-11T13:04:17.447Z,4.73
2023-01-11T13:06:58.365Z,5.13
2023-01-11T13:09:37.818Z,3.33
2023-01-11T13:12:13.485Z,6.63
2023-01-11T13:15:00.759Z,5.67
2023-01-11T13:17:38.278Z,5.77
2023-01-11T13:20:19.446Z,5.37
2023-01-11T13:22:51.805Z,5.57
2023-01-11T13:25:24.681Z,5.43
2023-01-11T13:27:55.562Z,4.17
2023-01-11T13:30:25.302Z,5.57
2023-01-11T13:32:59.530Z,6.53
2023-01-11T13:35:37.644Z,5.40
2023-01-11T13:38:14.890Z,4.13
2023-01-11T13:40:47.980Z,4.93
2023-01-11T13:43:21.759Z,4.60
2023-01-11T13:45:53.746Z,5.93
2023-01-11T13:48:27.690Z,4.37
2023-01-11T13:51:01.039Z,5.70
2023-01-11T13:53:36.991Z,4.80
2023-01-11T13:56:13.377Z,5.93
2023-01-11T13:58:53.144Z,6.53
2023-01-11T14:01:30.295Z,3.97
2023-01-11T14:04:07.417Z,4.77
2023-01-11T14:06:45.658Z,5.13
2023-01-11T14:09:32.058Z,3.90
2023-01-11T14:12:06.563Z,4.27
2023-01-11T14:14:47.268Z,3.33
2023-01-11T14:17:38.389Z,4.23
2023-01-11T14:20:18.987Z,5.43
2023-01-11T14:22:59.315Z,4.70
2023-01-11T14:25:32.570Z,5.03
2023-01-11T14:28:30.443Z,4.33
2023-01-11T14:31:41.456Z,6.27
2023-01-11T14:34:44.435Z,6.10
2023-01-11T14:37:39.401Z,4.67
2023-01-11T14:40:34.186Z,6.00
2023-01-11T14:43:27.270Z,4.30
2023-01-11T14:46:35.318Z,4.20
2023-01-11T14:49:15.728Z,5.00
2023-01-11T14:51:56.458Z,6.00
2023-01-11T14:54:29.595Z,7.30
2023-01-11T14:56:59.106Z,9.73
2023-01-11T14:59:38.988Z,7.70
2023-01-11T15:02:30.047Z,5.53
2023-01-11T15:05:09.803Z,5.73
2023-01-11T15:07:42.207Z,5.60
2023-01-11T15:11:02.228Z,6.30
2023-01-11T15:13:35.717Z,6.00
2023-01-11T15:16:27.568Z,6.70
2023-01-11T15:18:56.611Z,7.40
2023-01-11T15:21:27.957Z,6.60
2023-01-11T15:23:58.713Z,6.97
2023-01-11T15:26:28.555Z,7.87
2023-01-11T15:29:00.387Z,5.63
2023-01-11T15:31:44.670Z,6.73
2023-01-11T15:34:24.685Z,5.97
2023-01-11T15:37:09.438Z,6.70
2023-01-11T15:39:45.653Z,4.00
2023-01-11T15:42:56.024Z,5.57
2023-01-11T15:46:00.513Z,6.67
2023-01-11T15:48:37.456Z,7.23
2023-01-11T15:51:31.485Z,8.93
2023-01-11T15:54:41.937Z,6.90
2023-01-11T15:57:42.323Z,11.33
2023-01-11T16:00:50.297Z,8.47
2023-01-11T16:04:07.492Z,5.47
2023-01-11T16:06:42.961Z,7.47
2023-01-11T16:09:32.951Z,8.50
2023-01-11T16:12:25.291Z,10.60
2023-01-11T16:15:15.626Z,7.93
2023-01-11T16:17:45.169Z,7.07
2023-01-11T16:20:36.446Z,8.43
2023-01-11T16:23:07.342Z,6.90
2023-01-11T16:25:38.607Z,6.40
2023-01-11T16:28:07.217Z,9.97
2023-01-11T16:30:35.789Z,10.77
2023-01-11T16:33:18.340Z,6.07
2023-01-11T16:35:48.023Z,5.40
2023-01-11T16:38:20.058Z,14.93
2023-01-11T16:43:33.359Z,5.33
2023-01-11T16:46:01.644Z,6.47
2023-01-11T16:48:30.913Z,5.77
2023-01-11T16:51:03.306Z,8.13
2023-01-11T16:53:33.055Z,6.00
2023-01-11T16:56:05.525Z,9.67
2023-01-11T16:58:36.712Z,5.80
2023-01-11T17:01:07.624Z,5.20
2023-01-11T17:03:37.045Z,12.87
2023-01-11T17:06:22.492Z,6.00
2023-01-11T17:08:52.570Z,5.77
2023-01-11T17:11:33.621Z,6.60
2023-01-11T17:14:28.488Z,7.43
2023-01-11T17:17:02.024Z,8.37
2023-01-11T17:19:32.221Z,6.90
2023-01-11T17:22:05.473Z,7.43
2023-01-11T17:24:38.205Z,8.30
2023-01-11T17:27:09.059Z,4.50
2023-01-11T17:29:40.555Z,11.97
2023-01-11T17:32:14.570Z,7.90
2023-01-11T17:34:44.128Z,8.83
2023-01-11T17:37:17.003Z,7.33
2023-01-11T17:39:48.171Z,9.00
2023-01-11T17:42:35.054Z,8.37
2023-01-11T17:45:14.576Z,7.70
2023-01-11T17:47:45.621Z,7.83
2023-01-11T17:50:24.113Z,10.90
2023-01-11T17:53:03.278Z,11.43
2023-01-11T17:55:31.831Z,10.73
2023-01-11T17:58:22.807Z,12.30
2023-01-11T18:01:21.248Z,9.67
2023-01-11T18:03:51.635Z,10.60
2023-01-11T18:06:27.278Z,11.93
2023-01-11T18:08:58.169Z,11.23
2023-01-11T18:11:28.387Z,15.10
2023-01-11T18:14:00.206Z,13.53
2023-01-11T18:16:28.426Z,12.67
2023-01-11T18:18:56.804Z,14.33
2023-01-11T18:21:39.953Z,13.13
2023-01-11T18:24:43.062Z,16.50
2023-01-11T18:27:25.124Z,12.63
2023-01-11T18:29:53.973Z,13.90
2023-01-11T18:32:22.614Z,16.53
2023-01-11T18:34:54.334Z,15.10
2023-01-11T18:37:22.791Z,16.13
2023-01-11T18:39:53.875Z,15.53
2023-01-11T18:42:26.836Z,14.77
2023-01-11T18:44:54.878Z,20.37
2023-01-11T18:47:25.648Z,16.70
2023-01-11T18:49:54.605Z,18.90
2023-01-11T18:52:27.293Z,14.63
2023-01-11T18:54:57.574Z,14.37
2023-01-11T18:57:25.975Z,24.03
2023-01-11T18:59:54.255Z,16.60
2023-01-11T19:02:25.292Z,27.70
2023-01-11T19:04:55.267Z,21.10
2023-01-11T19:07:25.059Z,20.70
2023-01-11T19:09:54.885Z,21.60
2023-01-11T19:12:24.609Z,17.80
2023-01-11T19:14:52.858Z,21.43
2023-01-11T19:17:21.028Z,15.90
2023-01-11T19:19:49.281Z,18.70
2023-01-11T19:22:17.397Z,13.83
2023-01-11T19:24:45.558Z,17.13
2023-01-11T19:27:14.062Z,16.10
2023-01-11T19:29:43.648Z,20.20
2023-01-11T19:32:11.940Z,17.70
2023-01-11T19:34:41.062Z,21.67
2023-01-11T19:37:09.396Z,21.37
2023-01-11T19:39:37.459Z,19.93
2023-01-11T19:42:05.892Z,20.67
2023-01-11T19:44:35.673Z,18.53
2023-01-11T19:47:11.666Z,21.17
2023-01-11T19:49:41.066Z,24.83
2023-01-11T19:52:13.198Z,22.10
2023-01-11T19:54:42.904Z,20.00
2023-01-11T19:57:12.222Z,23.93
2023-01-11T19:59:40.200Z,23.20
2023-01-11T20:02:11.878Z,26.77
2023-01-11T20:04:40.477Z,23.13
2023-01-11T20:07:08.640Z,20.80
2023-01-11T20:09:38.003Z,31.17
2023-01-11T20:12:06.732Z,31.20
2023-01-11T20:14:35.268Z,23.17
2023-01-11T20:17:03.823Z,25.73
2023-01-11T20:19:33.513Z,26.37
2023-01-11T20:22:01.530Z,20.23
2023-01-11T20:24:30.174Z,21.73
2023-01-11T20:26:59.668Z,22.50
2023-01-11T20:29:27.898Z,21.73
2023-01-11T20:31:58.237Z,21.03
2023-01-11T20:34:32.471Z,24.70
2023-01-11T20:37:00.483Z,17.37
2023-01-11T20:39:28.495Z,17.17
2023-01-11T20:41:56.740Z,19.97
2023-01-11T20:44:28.077Z,20.83
2023-01-11T20:46:57.522Z,20.47
2023-01-11T20:49:27.295Z,22.43
2023-01-11T20:51:56.964Z,17.30
2023-01-11T20:54:25.145Z,24.83
2023-01-11T20:56:53.259Z,19.57
2023-01-11T20:59:21.422Z,23.30
2023-01-11T21:01:50.448Z,23.77
2023-01-11T21:04:19.393Z,25.10
2023-01-11T21:06:49.009Z,22.93
2023-01-11T21:09:22.255Z,27.83
2023-01-11T21:11:53.773Z,29.37
2023-01-11T21:14:22.319Z,31.77
2023-01-11T21:16:50.622Z,26.93
2023-01-11T21:19:18.650Z,25.27
2023-01-11T21:21:48.991Z,23.63
2023-01-11T21:24:19.054Z,24.73
2023-01-11T21:26:48.222Z,24.70
2023-01-11T21:29:16.326Z,24.70
2023-01-11T21:31:44.483Z,20.97
2023-01-11T21:34:13.900Z,17.30
2023-01-11T21:36:42.387Z,17.47
2023-01-11T21:39:14.064Z,20.90
2023-01-11T21:41:59.780Z,19.70
2023-01-11T21:44:32.130Z,20.30
2023-01-11T21:47:00.383Z,25.00
2023-01-11T21:49:28.818Z,23.00
2023-01-11T21:51:56.832Z,25.13
2023-01-11T21:54:24.919Z,19.23
2023-01-11T21:56:54.363Z,24.43
2023-01-11T21:59:23.241Z,21.53
2023-01-11T22:01:51.613Z,28.83
2023-01-11T22:04:21.512Z,34.50
2023-01-11T22:06:54.382Z,24.40
2023-01-11T22:09:23.255Z,30.43
2023-01-11T22:11:51.253Z,38.23
2023-01-11T22:14:20.752Z,35.83
2023-01-11T22:16:48.801Z,30.47
2023-01-11T22:19:17.392Z,25.90
2023-01-11T22:21:45.578Z,32.03
2023-01-11T22:24:13.849Z,21.33
2023-01-11T22:26:42.218Z,22.93
2023-01-11T22:29:14.931Z,26.47
2023-01-11T22:31:46.929Z,27.10
2023-01-11T22:34:15.780Z,25.17
2023-01-11T22:36:44.276Z,32.10
2023-01-11T22:39:13.213Z,25.87
2023-01-11T22:41:41.428Z,26.37
2023-01-11T22:44:10.286Z,33.37
2023-01-11T22:46:38.786Z,27.10
2023-01-11T22:49:08.588Z,31.00
2023-01-11T22:51:43.692Z,23.33
2023-01-11T22:54:12.269Z,27.07
2023-01-11T22:56:40.519Z,25.97
2023-01-11T22:59:08.755Z,29.77
2023-01-11T23:01:38.172Z,31.83
2023-01-11T23:04:10.365Z,30.70
2023-01-11T23:06:40.881Z,26.37
2023-01-11T23:09:15.568Z,31.50
2023-01-11T23:11:58.239Z,33.03
2023-01-11T23:14:30.415Z,32.07
2023-01-11T23:17:01.106Z,40.00
2023-01-11T23:19:32.167Z,30.47
2023-01-11T23:22:00.519Z,38.13
2023-01-11T23:24:28.970Z,40.33
2023-01-11T23:26:57.558Z,36.33
2023-01-11T23:29:25.860Z,36.63
2023-01-11T23:31:54.281Z,25.43
2023-01-11T23:34:22.889Z,31.97
2023-01-11T23:36:52.544Z,40.57
2023-01-11T23:39:20.999Z,29.37
2023-01-11T23:42:07.082Z,41.30
2023-01-11T23:44:35.823Z,47.87
2023-01-11T23:47:23.825Z,33.57
2023-01-11T23:49:53.679Z,44.50
2023-01-11T23:52:25.476Z,53.20
2023-01-11T23:54:54.176Z,44.33
2023-01-11T23:57:24.043Z,53.33
2023-01-11T23:59:52.751Z,65.77
